createdAt,value
2022-11-10T00:00:01.350Z,4.05
2022-11-10T00:05:05.869Z,6.57
2022-11-10T00:10:09.430Z,2.45
2022-11-10T00:15:12.059Z,5.88
2022-11-10T00:20:16.113Z,5.30
2022-11-10T00:25:18.559Z,5.93
2022-11-10T00:30:20.811Z,4.38
2022-11-10T00:35:24.533Z,3.00
2022-11-10T00:40:26.794Z,5.15
2022-11-10T00:45:29.096Z,2.42
2022-11-10T00:50:32.834Z,2.38
2022-11-10T00:55:38.105Z,4.07
2022-11-10T01:00:40.600Z,6.28
2022-11-10T01:05:45.102Z,2.25
2022-11-10T01:10:47.451Z,5.50
2022-11-10T01:15:49.748Z,8.73
2022-11-10T01:20:53.507Z,4.60
2022-11-10T01:25:57.573Z,10.80
2022-11-10T01:31:00.253Z,7.25
2022-11-10T01:36:05.087Z,7.30
2022-11-10T01:41:14.373Z,6.85
2022-11-10T01:46:16.730Z,9.25
2022-11-10T01:51:24.502Z,8.70
2022-11-10T01:56:30.631Z,8.02
2022-11-10T02:01:32.936Z,7.15
2022-11-10T02:06:40.899Z,6.28
2022-11-10T02:11:44.231Z,6.63
2022-11-10T02:16:46.625Z,8.65
2022-11-10T02:21:50.622Z,7.18
2022-11-10T02:26:55.973Z,6.90
2022-11-10T02:31:58.195Z,8.60
2022-11-10T02:37:01.820Z,8.48
2022-11-10T02:42:05.068Z,6.72
2022-11-10T02:47:07.708Z,7.97
2022-11-10T02:52:11.425Z,9.43
2022-11-10T02:57:13.670Z,9.07
2022-11-10T03:02:15.881Z,8.73
2022-11-10T03:07:19.644Z,9.90
2022-11-10T03:12:21.939Z,9.68
2022-11-10T03:17:24.498Z,8.55
2022-11-10T03:22:28.245Z,9.95
2022-11-10T03:27:30.654Z,13.68
2022-11-10T03:32:32.968Z,8.25
2022-11-10T03:37:36.712Z,11.15
2022-11-10T03:42:42.407Z,11.68
2022-11-10T03:47:45.778Z,9.60
2022-11-10T03:52:50.697Z,14.30
2022-11-10T03:57:53.000Z,12.68
2022-11-10T04:02:55.385Z,12.45
2022-11-10T04:08:00.944Z,15.05
2022-11-10T04:13:03.080Z,8.52
2022-11-10T04:18:05.437Z,9.55
2022-11-10T04:23:09.506Z,12.77
2022-11-10T04:28:11.755Z,7.72
2022-11-10T04:33:13.984Z,10.95
2022-11-10T04:38:18.100Z,13.82
2022-11-10T04:43:20.989Z,10.93
2022-11-10T04:48:24.174Z,13.07
2022-11-10T04:53:27.853Z,15.50
2022-11-10T04:58:30.232Z,12.50
2022-11-10T05:03:32.494Z,9.32
2022-11-10T05:08:36.261Z,11.02
2022-11-10T05:13:38.623Z,10.35
2022-11-10T05:18:41.377Z,10.05
2022-11-10T05:23:45.375Z,8.73
2022-11-10T05:28:47.695Z,8.73
2022-11-10T05:33:49.911Z,13.95
2022-11-10T05:38:54.121Z,11.40
2022-11-10T05:43:56.395Z,9.98
2022-11-10T05:48:58.673Z,9.65
2022-11-10T05:54:02.427Z,8.40
2022-11-10T05:59:19.409Z,12.18
2022-11-10T06:04:21.902Z,10.30
2022-11-10T06:09:25.834Z,11.45
2022-11-10T06:14:28.146Z,12.27
2022-11-10T06:19:30.444Z,16.80
2022-11-10T06:24:36.958Z,14.40
2022-11-10T06:29:39.329Z,19.60
2022-11-10T06:34:41.766Z,16.23
2022-11-10T06:39:45.573Z,16.02
2022-11-10T06:44:47.877Z,20.17
2022-11-10T06:49:50.245Z,15.98
2022-11-10T06:54:53.957Z,13.18
2022-11-10T06:59:56.183Z,11.80
2022-11-10T07:04:58.338Z,13.48
2022-11-10T07:10:06.736Z,13.90
2022-11-10T07:15:10.735Z,17.05
2022-11-10T07:20:13.061Z,12.38
2022-11-10T07:25:16.816Z,12.75
2022-11-10T07:30:19.147Z,15.50
2022-11-10T07:35:21.719Z,17.30
2022-11-10T07:40:25.417Z,18.35
2022-11-10T07:45:29.212Z,16.25
2022-11-10T07:50:31.813Z,21.17
2022-11-10T07:55:37.477Z,15.30
2022-11-10T08:00:40.423Z,16.10
2022-11-10T08:05:43.506Z,13.32
2022-11-10T08:10:47.262Z,10.80
2022-11-10T08:15:51.102Z,15.77
2022-11-10T08:20:53.529Z,14.65
2022-11-10T08:26:00.796Z,9.30
2022-11-10T08:36:10.672Z,10.10
2022-11-10T08:41:14.624Z,11.15
2022-11-10T08:46:16.932Z,18.27
2022-11-10T08:51:19.168Z,8.10
2022-11-10T08:56:23.466Z,13.98
2022-11-10T09:01:25.714Z,14.15
2022-11-10T09:06:28.073Z,15.35
2022-11-10T09:11:32.192Z,12.98
2022-11-10T09:16:34.442Z,17.00
2022-11-10T09:21:36.750Z,12.48
2022-11-10T09:26:40.458Z,16.85
2022-11-10T09:31:44.128Z,13.40
2022-11-10T09:36:46.406Z,12.43
2022-11-10T09:41:50.567Z,14.45
2022-11-10T09:46:58.912Z,13.68
2022-11-10T09:52:02.047Z,17.35
2022-11-10T09:57:08.345Z,14.95
2022-11-10T10:02:24.115Z,16.75
2022-11-10T10:07:31.049Z,17.75
2022-11-10T10:12:56.225Z,16.70
2022-11-10T10:18:16.540Z,11.93
2022-11-10T10:23:46.729Z,14.80
2022-11-10T10:28:51.359Z,14.90
2022-11-10T10:33:54.703Z,13.90
2022-11-10T10:39:01.431Z,13.77
2022-11-10T10:44:12.020Z,12.43
2022-11-10T10:49:33.700Z,10.35
2022-11-10T10:54:38.328Z,14.35
2022-11-10T10:59:42.120Z,13.82
2022-11-10T11:04:44.406Z,14.27
2022-11-10T11:09:47.428Z,13.18
2022-11-10T11:14:51.254Z,13.35
2022-11-10T11:19:59.445Z,13.15
2022-11-10T11:25:16.708Z,12.18
2022-11-10T11:30:22.513Z,15.23
2022-11-10T11:35:31.531Z,17.23
2022-11-10T11:40:46.122Z,11.63
2022-11-10T11:45:57.963Z,15.15
2022-11-10T11:51:09.989Z,16.88
2022-11-10T11:56:24.593Z,13.77
2022-11-10T12:01:45.403Z,9.23
2022-11-10T12:06:59.815Z,15.52
2022-11-10T12:12:17.162Z,17.80
2022-11-10T12:17:33.656Z,14.38
2022-11-10T12:22:43.050Z,18.43
2022-11-10T12:27:51.019Z,12.30
2022-11-10T12:33:00.492Z,12.68
2022-11-10T12:38:08.503Z,12.23
2022-11-10T12:43:19.003Z,13.20
2022-11-10T12:48:24.361Z,11.63
2022-11-10T12:53:31.050Z,15.95
2022-11-10T12:58:33.409Z,9.65
2022-11-10T13:03:39.493Z,10.55
2022-11-10T13:08:46.901Z,8.93
2022-11-10T13:13:59.303Z,8.93
2022-11-10T13:19:04.183Z,14.15
2022-11-10T13:24:23.891Z,11.70
2022-11-10T13:29:33.827Z,14.10
2022-11-10T13:34:38.378Z,12.63
2022-11-10T13:39:40.859Z,8.55
2022-11-10T13:44:43.622Z,10.30
2022-11-10T13:49:59.450Z,11.23
2022-11-10T13:55:38.736Z,14.25
2022-11-10T14:00:41.158Z,13.45
2022-11-10T14:06:05.342Z,8.20
2022-11-10T14:11:16.328Z,7.47
2022-11-10T14:16:21.373Z,14.70
2022-11-10T14:21:29.493Z,10.70
2022-11-10T14:26:38.009Z,12.88
2022-11-10T14:31:44.473Z,12.88
2022-11-10T14:36:57.103Z,15.30
2022-11-10T14:42:03.448Z,11.48
2022-11-10T14:47:24.140Z,13.07
2022-11-10T14:52:30.678Z,10.82
2022-11-10T14:57:33.133Z,7.77
2022-11-10T15:02:36.272Z,11.52
2022-11-10T15:07:40.528Z,10.57
2022-11-10T15:12:42.898Z,12.38
2022-11-10T15:17:47.674Z,10.55
2022-11-10T15:22:51.515Z,8.77
2022-11-10T15:28:00.794Z,10.38
2022-11-10T15:33:10.604Z,10.15
2022-11-10T15:38:29.724Z,13.00
2022-11-10T15:43:32.137Z,10.20
2022-11-10T15:48:38.790Z,8.13
2022-11-10T15:53:46.683Z,8.63
2022-11-10T15:58:50.715Z,11.20
2022-11-10T16:03:52.890Z,10.27
2022-11-10T16:08:56.879Z,11.57
2022-11-10T16:14:00.290Z,8.15
2022-11-10T16:19:02.642Z,12.38
2022-11-10T16:24:09.821Z,8.60
2022-11-10T16:29:13.925Z,11.75
2022-11-10T16:34:16.184Z,8.35
2022-11-10T16:39:20.052Z,10.00
2022-11-10T16:44:25.090Z,11.40
2022-11-10T16:49:34.295Z,9.30
2022-11-10T16:54:38.095Z,10.10
2022-11-10T16:59:40.500Z,12.77
2022-11-10T17:04:42.854Z,11.27
2022-11-10T17:09:47.689Z,8.90
2022-11-10T17:14:50.320Z,9.75
2022-11-10T17:19:52.573Z,9.07
2022-11-10T17:24:57.366Z,9.82
2022-11-10T17:29:59.720Z,9.57
2022-11-10T17:35:01.958Z,10.40
2022-11-10T17:40:16.793Z,10.25
2022-11-10T17:45:21.479Z,10.02
2022-11-10T17:50:24.501Z,8.15
2022-11-10T17:55:38.886Z,7.55
2022-11-10T18:00:41.903Z,6.15
2022-11-10T18:05:44.692Z,5.53
2022-11-10T18:10:50.398Z,6.82
2022-11-10T18:15:57.311Z,7.32
2022-11-10T18:20:59.611Z,10.52
2022-11-10T18:26:07.868Z,8.18
2022-11-10T18:31:12.030Z,8.57
2022-11-10T18:36:14.446Z,8.50
2022-11-10T18:41:18.187Z,10.05
2022-11-10T18:46:20.523Z,10.57
2022-11-10T18:51:22.794Z,12.07
2022-11-10T18:56:27.280Z,10.48
2022-11-10T19:01:29.983Z,7.40
2022-11-10T19:06:32.805Z,8.25
2022-11-10T19:11:36.534Z,7.03
2022-11-10T19:16:38.918Z,8.50
2022-11-10T19:21:41.731Z,7.63
2022-11-10T19:26:45.494Z,6.80
2022-11-10T19:31:48.058Z,7.55
2022-11-10T19:36:50.555Z,6.70
2022-11-10T19:41:54.375Z,8.68
2022-11-10T19:47:00.853Z,5.25
2022-11-10T19:52:05.185Z,12.10
2022-11-10T19:57:09.296Z,7.80
2022-11-10T20:02:13.513Z,5.05
2022-11-10T20:07:19.555Z,6.82
2022-11-10T20:12:40.821Z,11.85
2022-11-10T20:17:45.293Z,6.50
2022-11-10T20:22:48.227Z,7.50
2022-11-10T20:27:54.977Z,9.38
2022-11-10T20:32:59.542Z,9.23
2022-11-10T20:38:02.376Z,7.57
2022-11-10T20:43:09.733Z,7.13
2022-11-10T20:53:14.301Z,5.40
2022-11-10T20:58:18.386Z,5.50
2022-11-10T21:03:21.699Z,7.65
2022-11-10T21:08:24.703Z,5.88
2022-11-10T21:13:29.411Z,5.50
2022-11-10T21:18:33.880Z,7.32
2022-11-10T21:23:37.340Z,6.88
2022-11-10T21:28:43.404Z,3.63
2022-11-10T21:33:46.129Z,7.65
2022-11-10T21:38:49.285Z,7.85
2022-11-10T21:43:53.056Z,6.50
2022-11-10T21:48:55.512Z,8.80
2022-11-10T21:53:58.023Z,6.90
2022-11-10T21:59:02.138Z,7.10
2022-11-10T22:04:04.547Z,7.07
2022-11-10T22:09:06.837Z,7.85
2022-11-10T22:14:13.613Z,9.15
2022-11-10T22:19:16.046Z,6.35
2022-11-10T22:24:21.583Z,8.88
2022-11-10T22:29:31.189Z,10.02
2022-11-10T22:34:34.501Z,7.85
2022-11-10T22:39:37.009Z,5.22
2022-11-10T22:44:40.898Z,12.38
2022-11-10T22:49:43.384Z,5.80
2022-11-10T22:54:45.737Z,6.25
2022-11-10T22:59:50.147Z,8.35
2022-11-10T23:04:52.900Z,6.75
2022-11-10T23:09:55.238Z,9.20
2022-11-10T23:14:59.185Z,7.30
2022-11-10T23:20:05.368Z,9.57
2022-11-10T23:25:08.426Z,9.18
2022-11-10T23:30:13.221Z,6.65
2022-11-10T23:35:15.774Z,6.45
2022-11-10T23:40:23.659Z,11.90
2022-11-10T23:45:52.702Z,5.57
2022-11-10T23:50:50.259Z,12.10
2022-11-10T23:55:59.935Z,11.57
